sensor_id;sensor_type;location;lat;lon;timestamp;P1;durP1;ratioP1;P2;durP2;ratioP2
17852;SDS011;9052;53.494;14.376;2022-09-03T00:01:52;6.47;;;5.23;;
17852;SDS011;9052;53.494;14.376;2022-09-03T00:04:24;7.10;;;5.00;;
17852;SDS011;9052;53.494;14.376;2022-09-03T00:06:54;4.13;;;3.40;;
17852;SDS011;9052;53.494;14.376;2022-09-03T00:09:24;5.20;;;4.70;;
17852;SDS011;9052;53.494;14.376;2022-09-03T00:11:54;4.40;;;4.03;;
17852;SDS011;9052;53.494;14.376;2022-09-03T00:14:27;2.40;;;2.20;;
17852;SDS011;9052;53.494;14.376;2022-09-03T00:16:59;3.00;;;2.40;;
17852;SDS011;9052;53.494;14.376;2022-09-03T00:19:29;5.03;;;2.87;;
17852;SDS011;9052;53.494;14.376;2022-09-03T00:21:57;3.30;;;2.47;;
17852;SDS011;9052;53.494;14.376;2022-09-03T00:24:27;2.27;;;2.03;;
17852;SDS011;9052;53.494;14.376;2022-09-03T00:26:59;2.53;;;2.43;;
17852;SDS011;9052;53.494;14.376;2022-09-03T00:29:27;7.13;;;2.80;;
17852;SDS011;9052;53.494;14.376;2022-09-03T00:31:59;5.33;;;3.10;;
17852;SDS011;9052;53.494;14.376;2022-09-03T00:34:28;8.53;;;3.40;;
17852;SDS011;9052;53.494;14.376;2022-09-03T00:36:56;4.40;;;2.90;;
17852;SDS011;9052;53.494;14.376;2022-09-03T00:39:23;2.80;;;2.60;;
17852;SDS011;9052;53.494;14.376;2022-09-03T00:41:54;2.97;;;2.60;;
17852;SDS011;9052;53.494;14.376;2022-09-03T00:47:22;2.10;;;1.57;;
17852;SDS011;9052;53.494;14.376;2022-09-03T00:49:54;2.70;;;2.47;;
17852;SDS011;9052;53.494;14.376;2022-09-03T00:52:24;1.53;;;1.43;;
17852;SDS011;9052;53.494;14.376;2022-09-03T00:55:00;6.40;;;1.50;;
17852;SDS011;9052;53.494;14.376;2022-09-03T00:57:34;2.30;;;2.13;;
17852;SDS011;9052;53.494;14.376;2022-09-03T01:00:04;4.70;;;1.93;;
17852;SDS011;9052;53.494;14.376;2022-09-03T01:02:35;2.53;;;2.13;;
17852;SDS011;9052;53.494;14.376;2022-09-03T01:05:10;2.13;;;1.57;;
17852;SDS011;9052;53.494;14.376;2022-09-03T01:07:43;2.10;;;1.90;;
17852;SDS011;9052;53.494;14.376;2022-09-03T01:10:15;1.97;;;1.87;;
17852;SDS011;9052;53.494;14.376;2022-09-03T01:12:47;3.23;;;2.50;;
17852;SDS011;9052;53.494;14.376;2022-09-03T01:15:19;3.83;;;2.60;;
17852;SDS011;9052;53.494;14.376;2022-09-03T01:17:55;1.33;;;1.33;;
17852;SDS011;9052;53.494;14.376;2022-09-03T01:20:33;1.63;;;1.53;;
17852;SDS011;9052;53.494;14.376;2022-09-03T01:23:13;2.60;;;2.40;;
17852;SDS011;9052;53.494;14.376;2022-09-03T01:25:48;3.47;;;1.90;;
17852;SDS011;9052;53.494;14.376;2022-09-03T01:28:24;2.90;;;1.90;;
17852;SDS011;9052;53.494;14.376;2022-09-03T01:31:01;1.60;;;1.50;;
17852;SDS011;9052;53.494;14.376;2022-09-03T01:33:36;2.60;;;2.30;;
17852;SDS011;9052;53.494;14.376;2022-09-03T01:36:07;2.10;;;2.00;;
17852;SDS011;9052;53.494;14.376;2022-09-03T01:38:37;2.60;;;2.40;;
17852;SDS011;9052;53.494;14.376;2022-09-03T01:41:09;2.10;;;2.00;;
17852;SDS011;9052;53.494;14.376;2022-09-03T01:44:00;2.07;;;1.97;;
17852;SDS011;9052;53.494;14.376;2022-09-03T01:46:29;2.00;;;1.50;;
17852;SDS011;9052;53.494;14.376;2022-09-03T01:49:00;4.10;;;2.07;;
17852;SDS011;9052;53.494;14.376;2022-09-03T01:51:29;2.73;;;2.53;;
17852;SDS011;9052;53.494;14.376;2022-09-03T01:54:07;1.93;;;1.83;;
17852;SDS011;9052;53.494;14.376;2022-09-03T01:56:39;3.27;;;2.70;;
17852;SDS011;9052;53.494;14.376;2022-09-03T01:59:12;4.30;;;2.53;;
17852;SDS011;9052;53.494;14.376;2022-09-03T02:01:45;2.37;;;1.87;;
17852;SDS011;9052;53.494;14.376;2022-09-03T02:04:14;3.47;;;1.90;;
17852;SDS011;9052;53.494;14.376;2022-09-03T02:06:42;1.90;;;1.80;;
17852;SDS011;9052;53.494;14.376;2022-09-03T02:09:09;7.03;;;1.90;;
17852;SDS011;9052;53.494;14.376;2022-09-03T02:11:35;3.73;;;1.83;;
17852;SDS011;9052;53.494;14.376;2022-09-03T02:14:04;5.43;;;2.27;;
17852;SDS011;9052;53.494;14.376;2022-09-03T02:16:32;1.77;;;1.67;;
17852;SDS011;9052;53.494;14.376;2022-09-03T02:19:00;1.47;;;1.37;;
17852;SDS011;9052;53.494;14.376;2022-09-03T02:21:30;2.70;;;2.03;;
17852;SDS011;9052;53.494;14.376;2022-09-03T02:23:58;1.40;;;1.30;;
17852;SDS011;9052;53.494;14.376;2022-09-03T02:26:25;2.07;;;1.20;;
17852;SDS011;9052;53.494;14.376;2022-09-03T02:28:52;1.77;;;1.67;;
17852;SDS011;9052;53.494;14.376;2022-09-03T02:31:19;1.70;;;1.60;;
17852;SDS011;9052;53.494;14.376;2022-09-03T02:33:48;1.27;;;1.17;;
17852;SDS011;9052;53.494;14.376;2022-09-03T02:36:17;2.47;;;1.47;;
17852;SDS011;9052;53.494;14.376;2022-09-03T02:38:45;4.33;;;1.80;;
17852;SDS011;9052;53.494;14.376;2022-09-03T02:41:12;1.20;;;1.10;;
17852;SDS011;9052;53.494;14.376;2022-09-03T02:43:40;1.37;;;1.27;;
17852;SDS011;9052;53.494;14.376;2022-09-03T02:46:08;1.83;;;1.10;;
17852;SDS011;9052;53.494;14.376;2022-09-03T02:48:35;1.93;;;1.70;;
17852;SDS011;9052;53.494;14.376;2022-09-03T02:51:03;1.57;;;1.17;;
17852;SDS011;9052;53.494;14.376;2022-09-03T02:53:30;6.67;;;1.20;;
17852;SDS011;9052;53.494;14.376;2022-09-03T02:55:57;1.23;;;1.23;;
17852;SDS011;9052;53.494;14.376;2022-09-03T02:58:23;1.90;;;1.80;;
17852;SDS011;9052;53.494;14.376;2022-09-03T03:00:50;4.30;;;1.40;;
17852;SDS011;9052;53.494;14.376;2022-09-03T03:03:17;3.20;;;1.50;;
17852;SDS011;9052;53.494;14.376;2022-09-03T03:05:44;3.27;;;1.33;;
17852;SDS011;9052;53.494;14.376;2022-09-03T03:08:13;1.20;;;1.10;;
17852;SDS011;9052;53.494;14.376;2022-09-03T03:10:41;2.73;;;1.47;;
17852;SDS011;9052;53.494;14.376;2022-09-03T03:13:09;2.40;;;1.17;;
17852;SDS011;9052;53.494;14.376;2022-09-03T03:15:35;2.20;;;1.33;;
17852;SDS011;9052;53.494;14.376;2022-09-03T03:18:02;1.93;;;1.17;;
17852;SDS011;9052;53.494;14.376;2022-09-03T03:20:29;2.10;;;1.30;;
17852;SDS011;9052;53.494;14.376;2022-09-03T03:22:56;13.03;;;2.13;;
17852;SDS011;9052;53.494;14.376;2022-09-03T03:25:24;2.83;;;1.30;;
17852;SDS011;9052;53.494;14.376;2022-09-03T03:27:53;3.50;;;1.87;;
17852;SDS011;9052;53.494;14.376;2022-09-03T03:30:21;2.00;;;1.80;;
17852;SDS011;9052;53.494;14.376;2022-09-03T03:32:48;2.03;;;1.80;;
17852;SDS011;9052;53.494;14.376;2022-09-03T03:35:14;4.20;;;2.10;;
17852;SDS011;9052;53.494;14.376;2022-09-03T03:37:41;7.27;;;1.80;;
17852;SDS011;9052;53.494;14.376;2022-09-03T03:40:08;1.27;;;1.17;;
17852;SDS011;9052;53.494;14.376;2022-09-03T03:42:36;6.27;;;1.87;;
17852;SDS011;9052;53.494;14.376;2022-09-03T03:45:03;2.57;;;1.63;;
17852;SDS011;9052;53.494;14.376;2022-09-03T03:47:30;2.10;;;1.40;;
17852;SDS011;9052;53.494;14.376;2022-09-03T03:49:57;4.77;;;1.90;;
17852;SDS011;9052;53.494;14.376;2022-09-03T03:52:24;2.40;;;1.60;;
17852;SDS011;9052;53.494;14.376;2022-09-03T03:54:51;2.43;;;1.47;;
17852;SDS011;9052;53.494;14.376;2022-09-03T03:57:18;2.30;;;0.97;;
17852;SDS011;9052;53.494;14.376;2022-09-03T03:59:46;0.93;;;0.93;;
17852;SDS011;9052;53.494;14.376;2022-09-03T04:02:13;5.03;;;1.87;;
17852;SDS011;9052;53.494;14.376;2022-09-03T04:04:40;1.30;;;1.30;;
17852;SDS011;9052;53.494;14.376;2022-09-03T04:07:06;7.57;;;1.80;;
17852;SDS011;9052;53.494;14.376;2022-09-03T04:09:33;1.53;;;1.00;;
17852;SDS011;9052;53.494;14.376;2022-09-03T04:12:00;4.77;;;1.20;;
17852;SDS011;9052;53.494;14.376;2022-09-03T04:14:27;1.70;;;1.27;;
17852;SDS011;9052;53.494;14.376;2022-09-03T04:16:55;2.10;;;1.50;;
17852;SDS011;9052;53.494;14.376;2022-09-03T04:19:22;1.30;;;1.20;;
17852;SDS011;9052;53.494;14.376;2022-09-03T04:21:49;8.10;;;1.97;;
17852;SDS011;9052;53.494;14.376;2022-09-03T04:24:15;1.33;;;1.17;;
17852;SDS011;9052;53.494;14.376;2022-09-03T04:26:42;1.73;;;1.63;;
17852;SDS011;9052;53.494;14.376;2022-09-03T04:29:09;2.07;;;1.57;;
17852;SDS011;9052;53.494;14.376;2022-09-03T04:31:36;2.00;;;1.87;;
17852;SDS011;9052;53.494;14.376;2022-09-03T04:34:04;1.60;;;1.50;;
17852;SDS011;9052;53.494;14.376;2022-09-03T04:36:31;6.33;;;1.67;;
17852;SDS011;9052;53.494;14.376;2022-09-03T04:38:59;1.70;;;1.60;;
17852;SDS011;9052;53.494;14.376;2022-09-03T04:41:27;1.73;;;1.60;;
17852;SDS011;9052;53.494;14.376;2022-09-03T04:43:54;1.63;;;1.53;;
17852;SDS011;9052;53.494;14.376;2022-09-03T04:46:23;5.90;;;1.73;;
17852;SDS011;9052;53.494;14.376;2022-09-03T04:48:50;2.20;;;1.90;;
17852;SDS011;9052;53.494;14.376;2022-09-03T04:51:19;2.03;;;1.93;;
17852;SDS011;9052;53.494;14.376;2022-09-03T04:53:51;8.47;;;1.67;;
17852;SDS011;9052;53.494;14.376;2022-09-03T04:56:19;2.50;;;1.30;;
17852;SDS011;9052;53.494;14.376;2022-09-03T04:58:46;2.30;;;1.43;;
17852;SDS011;9052;53.494;14.376;2022-09-03T05:01:15;1.97;;;1.23;;
17852;SDS011;9052;53.494;14.376;2022-09-03T05:03:42;1.37;;;1.23;;
17852;SDS011;9052;53.494;14.376;2022-09-03T05:06:08;2.73;;;1.63;;
17852;SDS011;9052;53.494;14.376;2022-09-03T05:08:37;0.77;;;0.77;;
17852;SDS011;9052;53.494;14.376;2022-09-03T05:11:04;1.00;;;1.00;;
17852;SDS011;9052;53.494;14.376;2022-09-03T05:13:32;2.90;;;1.37;;
17852;SDS011;9052;53.494;14.376;2022-09-03T05:15:59;1.00;;;0.90;;
17852;SDS011;9052;53.494;14.376;2022-09-03T05:18:26;1.90;;;1.30;;
17852;SDS011;9052;53.494;14.376;2022-09-03T05:20:56;3.07;;;1.87;;
17852;SDS011;9052;53.494;14.376;2022-09-03T05:23:23;5.80;;;2.23;;
17852;SDS011;9052;53.494;14.376;2022-09-03T05:25:55;1.43;;;1.33;;
17852;SDS011;9052;53.494;14.376;2022-09-03T05:28:22;2.17;;;1.10;;
17852;SDS011;9052;53.494;14.376;2022-09-03T05:30:56;1.93;;;1.00;;
17852;SDS011;9052;53.494;14.376;2022-09-03T05:33:23;1.13;;;1.03;;
17852;SDS011;9052;53.494;14.376;2022-09-03T05:35:49;2.10;;;1.17;;
17852;SDS011;9052;53.494;14.376;2022-09-03T05:38:17;4.43;;;1.10;;
17852;SDS011;9052;53.494;14.376;2022-09-03T05:40:44;1.33;;;1.10;;
17852;SDS011;9052;53.494;14.376;2022-09-03T05:43:12;1.50;;;1.23;;
17852;SDS011;9052;53.494;14.376;2022-09-03T05:45:41;1.20;;;1.10;;
17852;SDS011;9052;53.494;14.376;2022-09-03T05:48:07;7.23;;;1.60;;
17852;SDS011;9052;53.494;14.376;2022-09-03T05:50:35;2.60;;;1.00;;
17852;SDS011;9052;53.494;14.376;2022-09-03T05:53:01;1.33;;;1.00;;
17852;SDS011;9052;53.494;14.376;2022-09-03T05:55:28;1.20;;;0.90;;
17852;SDS011;9052;53.494;14.376;2022-09-03T05:57:54;1.30;;;1.20;;
17852;SDS011;9052;53.494;14.376;2022-09-03T06:00:23;0.80;;;0.80;;
17852;SDS011;9052;53.494;14.376;2022-09-03T06:02:49;1.13;;;0.90;;
17852;SDS011;9052;53.494;14.376;2022-09-03T06:05:17;1.17;;;1.07;;
17852;SDS011;9052;53.494;14.376;2022-09-03T06:07:43;4.93;;;1.33;;
17852;SDS011;9052;53.494;14.376;2022-09-03T06:10:12;1.80;;;1.30;;
17852;SDS011;9052;53.494;14.376;2022-09-03T06:12:40;1.13;;;1.03;;
17852;SDS011;9052;53.494;14.376;2022-09-03T06:15:07;0.70;;;0.70;;
17852;SDS011;9052;53.494;14.376;2022-09-03T06:17:35;1.00;;;0.90;;
17852;SDS011;9052;53.494;14.376;2022-09-03T06:20:03;1.63;;;1.33;;
17852;SDS011;9052;53.494;14.376;2022-09-03T06:22:29;0.93;;;0.83;;
17852;SDS011;9052;53.494;14.376;2022-09-03T06:24:56;2.40;;;1.17;;
17852;SDS011;9052;53.494;14.376;2022-09-03T06:27:23;2.53;;;0.97;;
17852;SDS011;9052;53.494;14.376;2022-09-03T06:29:49;1.27;;;1.07;;
17852;SDS011;9052;53.494;14.376;2022-09-03T06:32:16;3.30;;;1.43;;
17852;SDS011;9052;53.494;14.376;2022-09-03T06:34:44;4.30;;;1.10;;
17852;SDS011;9052;53.494;14.376;2022-09-03T06:37:11;1.43;;;1.33;;
17852;SDS011;9052;53.494;14.376;2022-09-03T06:39:37;1.43;;;1.10;;
17852;SDS011;9052;53.494;14.376;2022-09-03T06:42:04;3.10;;;0.87;;
17852;SDS011;9052;53.494;14.376;2022-09-03T06:44:31;2.97;;;1.20;;
17852;SDS011;9052;53.494;14.376;2022-09-03T06:46:57;1.03;;;0.93;;
17852;SDS011;9052;53.494;14.376;2022-09-03T06:49:25;1.53;;;1.10;;
17852;SDS011;9052;53.494;14.376;2022-09-03T06:51:53;11.90;;;1.00;;
17852;SDS011;9052;53.494;14.376;2022-09-03T06:54:20;5.50;;;0.97;;
17852;SDS011;9052;53.494;14.376;2022-09-03T06:56:47;0.90;;;0.90;;
17852;SDS011;9052;53.494;14.376;2022-09-03T06:59:13;0.90;;;0.90;;
17852;SDS011;9052;53.494;14.376;2022-09-03T07:01:40;1.20;;;1.10;;
17852;SDS011;9052;53.494;14.376;2022-09-03T07:04:08;1.57;;;1.00;;
17852;SDS011;9052;53.494;14.376;2022-09-03T07:06:36;3.80;;;1.03;;
17852;SDS011;9052;53.494;14.376;2022-09-03T07:09:06;1.40;;;1.03;;
17852;SDS011;9052;53.494;14.376;2022-09-03T07:11:32;3.23;;;1.10;;
17852;SDS011;9052;53.494;14.376;2022-09-03T07:14:00;0.80;;;0.80;;
17852;SDS011;9052;53.494;14.376;2022-09-03T07:16:27;3.80;;;1.23;;
17852;SDS011;9052;53.494;14.376;2022-09-03T07:18:54;8.10;;;1.17;;
17852;SDS011;9052;53.494;14.376;2022-09-03T07:21:22;1.80;;;1.13;;
17852;SDS011;9052;53.494;14.376;2022-09-03T07:28:56;1.97;;;0.83;;
17852;SDS011;9052;53.494;14.376;2022-09-03T07:31:24;1.53;;;0.97;;
17852;SDS011;9052;53.494;14.376;2022-09-03T07:33:52;1.07;;;1.03;;
17852;SDS011;9052;53.494;14.376;2022-09-03T07:36:20;1.03;;;0.77;;
17852;SDS011;9052;53.494;14.376;2022-09-03T07:38:47;1.47;;;1.00;;
17852;SDS011;9052;53.494;14.376;2022-09-03T07:41:14;6.27;;;1.40;;
17852;SDS011;9052;53.494;14.376;2022-09-03T07:43:41;4.33;;;1.10;;
17852;SDS011;9052;53.494;14.376;2022-09-03T07:46:13;2.07;;;1.30;;
17852;SDS011;9052;53.494;14.376;2022-09-03T07:48:41;3.20;;;0.73;;
17852;SDS011;9052;53.494;14.376;2022-09-03T07:51:08;6.40;;;1.03;;
17852;SDS011;9052;53.494;14.376;2022-09-03T07:53:35;1.43;;;0.80;;
17852;SDS011;9052;53.494;14.376;2022-09-03T07:56:02;4.10;;;0.80;;
17852;SDS011;9052;53.494;14.376;2022-09-03T07:58:29;2.60;;;1.40;;
17852;SDS011;9052;53.494;14.376;2022-09-03T08:00:56;5.57;;;1.13;;
17852;SDS011;9052;53.494;14.376;2022-09-03T08:03:24;2.00;;;1.30;;
17852;SDS011;9052;53.494;14.376;2022-09-03T08:05:51;5.20;;;1.33;;
17852;SDS011;9052;53.494;14.376;2022-09-03T08:08:18;0.60;;;0.60;;
17852;SDS011;9052;53.494;14.376;2022-09-03T08:10:44;3.03;;;1.03;;
17852;SDS011;9052;53.494;14.376;2022-09-03T08:13:11;0.90;;;0.90;;
17852;SDS011;9052;53.494;14.376;2022-09-03T08:15:38;1.00;;;0.90;;
17852;SDS011;9052;53.494;14.376;2022-09-03T08:18:07;6.43;;;1.40;;
17852;SDS011;9052;53.494;14.376;2022-09-03T08:20:35;1.03;;;0.80;;
17852;SDS011;9052;53.494;14.376;2022-09-03T08:23:03;2.50;;;1.00;;
17852;SDS011;9052;53.494;14.376;2022-09-03T08:25:30;1.20;;;1.10;;
17852;SDS011;9052;53.494;14.376;2022-09-03T08:27:57;1.67;;;1.20;;
17852;SDS011;9052;53.494;14.376;2022-09-03T08:30:24;4.23;;;0.90;;
17852;SDS011;9052;53.494;14.376;2022-09-03T08:32:51;0.93;;;0.83;;
17852;SDS011;9052;53.494;14.376;2022-09-03T08:35:18;0.80;;;0.80;;
17852;SDS011;9052;53.494;14.376;2022-09-03T08:37:47;1.33;;;0.80;;
17852;SDS011;9052;53.494;14.376;2022-09-03T08:40:16;1.00;;;0.80;;
17852;SDS011;9052;53.494;14.376;2022-09-03T08:42:45;2.60;;;1.10;;
17852;SDS011;9052;53.494;14.376;2022-09-03T08:45:14;1.00;;;0.70;;
17852;SDS011;9052;53.494;14.376;2022-09-03T08:47:43;0.97;;;0.87;;
17852;SDS011;9052;53.494;14.376;2022-09-03T08:50:12;1.37;;;0.83;;
17852;SDS011;9052;53.494;14.376;2022-09-03T08:52:44;0.97;;;0.87;;
17852;SDS011;9052;53.494;14.376;2022-09-03T08:55:16;1.17;;;1.07;;
17852;SDS011;9052;53.494;14.376;2022-09-03T08:57:46;3.33;;;0.87;;
17852;SDS011;9052;53.494;14.376;2022-09-03T09:00:13;2.73;;;1.30;;
17852;SDS011;9052;53.494;14.376;2022-09-03T09:02:44;0.70;;;0.70;;
17852;SDS011;9052;53.494;14.376;2022-09-03T09:05:15;1.23;;;1.00;;
17852;SDS011;9052;53.494;14.376;2022-09-03T09:07:43;1.00;;;0.80;;
17852;SDS011;9052;53.494;14.376;2022-09-03T09:10:13;1.10;;;0.90;;
17852;SDS011;9052;53.494;14.376;2022-09-03T09:12:46;3.23;;;0.50;;
17852;SDS011;9052;53.494;14.376;2022-09-03T09:15:18;1.23;;;0.97;;
17852;SDS011;9052;53.494;14.376;2022-09-03T09:17:54;2.70;;;1.00;;
17852;SDS011;9052;53.494;14.376;2022-09-03T09:20:29;1.63;;;0.93;;
17852;SDS011;9052;53.494;14.376;2022-09-03T09:22:59;1.13;;;0.50;;
17852;SDS011;9052;53.494;14.376;2022-09-03T09:25:26;2.63;;;0.73;;
17852;SDS011;9052;53.494;14.376;2022-09-03T09:27:57;1.77;;;0.70;;
17852;SDS011;9052;53.494;14.376;2022-09-03T09:30:25;3.70;;;0.60;;
17852;SDS011;9052;53.494;14.376;2022-09-03T09:32:52;2.17;;;0.60;;
17852;SDS011;9052;53.494;14.376;2022-09-03T09:35:20;0.90;;;0.77;;
17852;SDS011;9052;53.494;14.376;2022-09-03T09:37:47;2.80;;;0.70;;
17852;SDS011;9052;53.494;14.376;2022-09-03T09:40:21;1.60;;;0.80;;
17852;SDS011;9052;53.494;14.376;2022-09-03T09:42:49;0.70;;;0.60;;
17852;SDS011;9052;53.494;14.376;2022-09-03T09:45:24;1.00;;;0.60;;
17852;SDS011;9052;53.494;14.376;2022-09-03T09:47:52;9.00;;;1.57;;
17852;SDS011;9052;53.494;14.376;2022-09-03T09:50:20;1.30;;;0.70;;
17852;SDS011;9052;53.494;14.376;2022-09-03T09:52:47;1.43;;;0.90;;
17852;SDS011;9052;53.494;14.376;2022-09-03T09:55:15;2.60;;;1.10;;
17852;SDS011;9052;53.494;14.376;2022-09-03T09:57:41;2.40;;;0.80;;
17852;SDS011;9052;53.494;14.376;2022-09-03T10:00:09;1.37;;;0.60;;
17852;SDS011;9052;53.494;14.376;2022-09-03T10:02:38;3.20;;;0.97;;
17852;SDS011;9052;53.494;14.376;2022-09-03T10:05:13;1.83;;;0.60;;
17852;SDS011;9052;53.494;14.376;2022-09-03T10:07:40;1.90;;;0.90;;
17852;SDS011;9052;53.494;14.376;2022-09-03T10:10:13;3.23;;;0.53;;
17852;SDS011;9052;53.494;14.376;2022-09-03T10:12:41;1.37;;;0.67;;
17852;SDS011;9052;53.494;14.376;2022-09-03T10:15:11;2.70;;;0.40;;
17852;SDS011;9052;53.494;14.376;2022-09-03T10:17:46;1.20;;;0.70;;
17852;SDS011;9052;53.494;14.376;2022-09-03T10:20:17;1.90;;;0.90;;
17852;SDS011;9052;53.494;14.376;2022-09-03T10:22:55;1.83;;;0.60;;
17852;SDS011;9052;53.494;14.376;2022-09-03T10:25:24;3.60;;;0.93;;
17852;SDS011;9052;53.494;14.376;2022-09-03T10:27:52;4.23;;;0.60;;
17852;SDS011;9052;53.494;14.376;2022-09-03T10:30:19;2.20;;;0.80;;
17852;SDS011;9052;53.494;14.376;2022-09-03T10:32:51;5.97;;;1.00;;
17852;SDS011;9052;53.494;14.376;2022-09-03T10:35:26;0.60;;;0.60;;
17852;SDS011;9052;53.494;14.376;2022-09-03T10:37:55;0.80;;;0.50;;
17852;SDS011;9052;53.494;14.376;2022-09-03T10:40:25;3.53;;;0.80;;
17852;SDS011;9052;53.494;14.376;2022-09-03T10:43:10;1.60;;;0.73;;
17852;SDS011;9052;53.494;14.376;2022-09-03T10:45:43;2.73;;;0.60;;
17852;SDS011;9052;53.494;14.376;2022-09-03T10:50:56;2.20;;;0.83;;
17852;SDS011;9052;53.494;14.376;2022-09-03T10:53:28;1.33;;;0.63;;
17852;SDS011;9052;53.494;14.376;2022-09-03T10:55:57;0.93;;;0.67;;
17852;SDS011;9052;53.494;14.376;2022-09-03T10:58:30;5.80;;;0.70;;
17852;SDS011;9052;53.494;14.376;2022-09-03T11:01:03;4.30;;;1.10;;
17852;SDS011;9052;53.494;14.376;2022-09-03T11:03:37;1.40;;;0.67;;
17852;SDS011;9052;53.494;14.376;2022-09-03T11:06:11;0.97;;;0.87;;
17852;SDS011;9052;53.494;14.376;2022-09-03T11:08:41;0.90;;;0.67;;
17852;SDS011;9052;53.494;14.376;2022-09-03T11:11:11;4.67;;;1.00;;
17852;SDS011;9052;53.494;14.376;2022-09-03T11:13:40;8.00;;;0.60;;
17852;SDS011;9052;53.494;14.376;2022-09-03T11:16:10;0.90;;;0.73;;
17852;SDS011;9052;53.494;14.376;2022-09-03T11:18:40;3.63;;;1.60;;
17852;SDS011;9052;53.494;14.376;2022-09-03T11:21:08;5.67;;;0.90;;
17852;SDS011;9052;53.494;14.376;2022-09-03T11:23:39;1.20;;;0.70;;
17852;SDS011;9052;53.494;14.376;2022-09-03T11:26:06;5.37;;;0.83;;
17852;SDS011;9052;53.494;14.376;2022-09-03T11:28:37;1.00;;;0.80;;
17852;SDS011;9052;53.494;14.376;2022-09-03T11:31:15;9.37;;;0.90;;
17852;SDS011;9052;53.494;14.376;2022-09-03T11:33:43;0.87;;;0.67;;
17852;SDS011;9052;53.494;14.376;2022-09-03T11:36:11;4.03;;;0.50;;
17852;SDS011;9052;53.494;14.376;2022-09-03T11:38:39;0.70;;;0.70;;
17852;SDS011;9052;53.494;14.376;2022-09-03T11:41:11;6.97;;;0.90;;
17852;SDS011;9052;53.494;14.376;2022-09-03T11:43:38;0.80;;;0.70;;
17852;SDS011;9052;53.494;14.376;2022-09-03T11:46:06;2.50;;;0.80;;
17852;SDS011;9052;53.494;14.376;2022-09-03T11:48:37;1.80;;;0.93;;
17852;SDS011;9052;53.494;14.376;2022-09-03T11:51:14;4.10;;;0.77;;
17852;SDS011;9052;53.494;14.376;2022-09-03T11:53:51;5.27;;;0.80;;
17852;SDS011;9052;53.494;14.376;2022-09-03T11:56:18;0.70;;;0.70;;
17852;SDS011;9052;53.494;14.376;2022-09-03T11:58:45;3.10;;;0.77;;
17852;SDS011;9052;53.494;14.376;2022-09-03T12:01:12;1.97;;;0.97;;
17852;SDS011;9052;53.494;14.376;2022-09-03T12:03:42;2.03;;;0.87;;
17852;SDS011;9052;53.494;14.376;2022-09-03T12:06:18;1.73;;;0.73;;
17852;SDS011;9052;53.494;14.376;2022-09-03T12:11:45;6.30;;;0.90;;
17852;SDS011;9052;53.494;14.376;2022-09-03T12:14:17;3.50;;;0.60;;
17852;SDS011;9052;53.494;14.376;2022-09-03T12:16:51;4.43;;;1.27;;
17852;SDS011;9052;53.494;14.376;2022-09-03T12:19:20;1.57;;;0.90;;
17852;SDS011;9052;53.494;14.376;2022-09-03T12:21:50;2.50;;;1.07;;
17852;SDS011;9052;53.494;14.376;2022-09-03T12:24:18;1.90;;;0.57;;
17852;SDS011;9052;53.494;14.376;2022-09-03T12:26:46;3.43;;;0.60;;
17852;SDS011;9052;53.494;14.376;2022-09-03T12:29:19;0.87;;;0.70;;
17852;SDS011;9052;53.494;14.376;2022-09-03T12:31:47;1.30;;;0.87;;
17852;SDS011;9052;53.494;14.376;2022-09-03T12:34:15;11.40;;;0.67;;
17852;SDS011;9052;53.494;14.376;2022-09-03T12:36:42;0.63;;;0.63;;
17852;SDS011;9052;53.494;14.376;2022-09-03T12:39:09;1.17;;;1.00;;
17852;SDS011;9052;53.494;14.376;2022-09-03T12:41:36;2.10;;;0.70;;
17852;SDS011;9052;53.494;14.376;2022-09-03T12:44:04;0.80;;;0.80;;
17852;SDS011;9052;53.494;14.376;2022-09-03T12:46:31;1.00;;;0.90;;
17852;SDS011;9052;53.494;14.376;2022-09-03T12:48:59;3.07;;;1.03;;
17852;SDS011;9052;53.494;14.376;2022-09-03T12:51:33;5.67;;;0.90;;
17852;SDS011;9052;53.494;14.376;2022-09-03T12:54:00;2.70;;;0.80;;
17852;SDS011;9052;53.494;14.376;2022-09-03T12:56:29;3.47;;;0.70;;
17852;SDS011;9052;53.494;14.376;2022-09-03T12:59:00;3.33;;;0.70;;
17852;SDS011;9052;53.494;14.376;2022-09-03T13:01:31;2.40;;;0.90;;
17852;SDS011;9052;53.494;14.376;2022-09-03T13:04:01;0.80;;;0.80;;
17852;SDS011;9052;53.494;14.376;2022-09-03T13:06:29;2.23;;;0.70;;
17852;SDS011;9052;53.494;14.376;2022-09-03T13:08:57;1.67;;;0.70;;
17852;SDS011;9052;53.494;14.376;2022-09-03T13:11:25;0.80;;;0.77;;
17852;SDS011;9052;53.494;14.376;2022-09-03T13:13:53;1.43;;;0.60;;
17852;SDS011;9052;53.494;14.376;2022-09-03T13:16:32;0.83;;;0.60;;
17852;SDS011;9052;53.494;14.376;2022-09-03T13:19:05;6.70;;;0.83;;
17852;SDS011;9052;53.494;14.376;2022-09-03T13:21:36;0.90;;;0.80;;
17852;SDS011;9052;53.494;14.376;2022-09-03T13:24:15;0.80;;;0.70;;
17852;SDS011;9052;53.494;14.376;2022-09-03T13:26:47;5.00;;;0.70;;
17852;SDS011;9052;53.494;14.376;2022-09-03T13:29:22;2.50;;;0.70;;
17852;SDS011;9052;53.494;14.376;2022-09-03T13:31:52;0.90;;;0.50;;
17852;SDS011;9052;53.494;14.376;2022-09-03T13:34:22;1.03;;;0.80;;
17852;SDS011;9052;53.494;14.376;2022-09-03T13:36:53;0.60;;;0.50;;
17852;SDS011;9052;53.494;14.376;2022-09-03T13:39:23;3.73;;;0.70;;
17852;SDS011;9052;53.494;14.376;2022-09-03T13:41:53;1.17;;;0.70;;
17852;SDS011;9052;53.494;14.376;2022-09-03T13:44:21;8.80;;;0.90;;
17852;SDS011;9052;53.494;14.376;2022-09-03T13:46:51;1.40;;;1.10;;
17852;SDS011;9052;53.494;14.376;2022-09-03T13:49:31;5.20;;;1.00;;
17852;SDS011;9052;53.494;14.376;2022-09-03T13:52:18;0.80;;;0.77;;
17852;SDS011;9052;53.494;14.376;2022-09-03T13:54:49;0.90;;;0.67;;
17852;SDS011;9052;53.494;14.376;2022-09-03T13:57:21;2.23;;;0.90;;
17852;SDS011;9052;53.494;14.376;2022-09-03T13:59:50;4.30;;;0.77;;
17852;SDS011;9052;53.494;14.376;2022-09-03T14:02:20;1.47;;;0.60;;
17852;SDS011;9052;53.494;14.376;2022-09-03T14:04:53;2.63;;;0.90;;
17852;SDS011;9052;53.494;14.376;2022-09-03T14:07:23;2.17;;;0.87;;
17852;SDS011;9052;53.494;14.376;2022-09-03T14:09:53;4.50;;;1.00;;
17852;SDS011;9052;53.494;14.376;2022-09-03T14:12:24;0.60;;;0.60;;
17852;SDS011;9052;53.494;14.376;2022-09-03T14:14:57;2.40;;;0.90;;
17852;SDS011;9052;53.494;14.376;2022-09-03T14:17:31;1.90;;;0.70;;
17852;SDS011;9052;53.494;14.376;2022-09-03T14:20:04;0.87;;;0.60;;
17852;SDS011;9052;53.494;14.376;2022-09-03T14:22:33;2.70;;;0.87;;
17852;SDS011;9052;53.494;14.376;2022-09-03T14:25:08;1.10;;;0.67;;
17852;SDS011;9052;53.494;14.376;2022-09-03T14:27:36;1.87;;;0.67;;
17852;SDS011;9052;53.494;14.376;2022-09-03T14:30:03;0.70;;;0.60;;
17852;SDS011;9052;53.494;14.376;2022-09-03T14:32:34;1.53;;;0.53;;
17852;SDS011;9052;53.494;14.376;2022-09-03T14:38:17;3.50;;;0.80;;
17852;SDS011;9052;53.494;14.376;2022-09-03T14:40:51;11.57;;;0.93;;
17852;SDS011;9052;53.494;14.376;2022-09-03T14:43:28;1.07;;;0.60;;
17852;SDS011;9052;53.494;14.376;2022-09-03T14:46:11;1.80;;;0.90;;
17852;SDS011;9052;53.494;14.376;2022-09-03T14:48:48;4.50;;;0.70;;
17852;SDS011;9052;53.494;14.376;2022-09-03T14:51:22;1.10;;;0.60;;
17852;SDS011;9052;53.494;14.376;2022-09-03T14:54:05;2.10;;;0.80;;
17852;SDS011;9052;53.494;14.376;2022-09-03T14:56:39;0.90;;;0.80;;
17852;SDS011;9052;53.494;14.376;2022-09-03T14:59:12;0.77;;;0.60;;
17852;SDS011;9052;53.494;14.376;2022-09-03T15:01:43;1.03;;;0.93;;
17852;SDS011;9052;53.494;14.376;2022-09-03T15:04:17;2.17;;;0.83;;
17852;SDS011;9052;53.494;14.376;2022-09-03T15:06:54;0.73;;;0.53;;
17852;SDS011;9052;53.494;14.376;2022-09-03T15:09:29;2.07;;;1.10;;
17852;SDS011;9052;53.494;14.376;2022-09-03T15:11:59;1.00;;;0.80;;
17852;SDS011;9052;53.494;14.376;2022-09-03T15:14:29;0.97;;;0.63;;
17852;SDS011;9052;53.494;14.376;2022-09-03T15:17:16;1.20;;;1.00;;
17852;SDS011;9052;53.494;14.376;2022-09-03T15:19:53;1.97;;;0.87;;